Austin, TX

20:29 CST le 12 février 2016 (GMT -0600)
West End | | Change Station
CLOSE
Current Station
Stations météorologiques personnelles
Location: Austin, TX
Altitude: 564 ft
Stations météo à proximité

Alt. 564 ft 30.28 °N, 97.75 °W | Updated 25 seconds ago

Ciel dégagé
Ciel dégagé
69.4 ° F
Paraît 69.4 ° F
N
3.4
Vent Variable Vent de NNE
Gusts 4.9 mph

Aujourd'hui
Haut(e) -- | Bas -- ° F
--% Risque de précip.
Hier
Haut(e) -- | Bas -- ° F
Precip. -- pouce
Pression 30.27 pouce
Visibilité 10.0 Miles terrestres
Nuages Ciel dégagé
Point de rosée 43 ° F
Humidité 38%
Précipitations 0.00 pouce
Profondeur de la couche neigeuse Non disponible.
7:14 AM 6:16 PM
Lune montante, 26% visible
METAR KATT 130151Z AUTO 02005KT 10SM CLR 20/07 A3027 RMK AO2 SLP248 T02000067
Pression 30.27 pouce
Visibilité 10.0 Miles terrestres
Nuages Ciel dégagé
Point de rosée 43 ° F
Humidité 38%
Précipitations 0.00 pouce
Profondeur de la couche neigeuse Non disponible.
7:14 AM 6:16 PM
Lune montante, 26% visible
METAR KATT 130151Z AUTO 02005KT 10SM CLR 20/07 A3027 RMK AO2 SLP248 T02000067

10-Day Weather Forecast

Almanac

Astronomie

Feb. 12, 2016 Lever Coucher
Temps réel
Crépuscule civil
Crépuscule nautique
Crépuscule astronomique
Lune
Durée de lumière visible
Longueur du jour
Tomorrow will be .
, % of the Moon is Illuminated

Extrêmes aujourd'hui

State Highs State Lows

Community

WunderPhotos

Upload Photos

1,892,464 Photos téléchargées !

WunderBlog® & News

Nearby

Qualité de l'air

  Qualité de l'air Indice de la qualité de l'air Polluant
Not available.

Épaisseur de neige

Station Depth Altitude

Activité sismique

Ville Distance Mag. Time & Date
Minimum magnitude displayed is 2.5.

Températures des eaux côtières

Lieu Température

Stations

Stations météo à proximité

Emplacement de la station Température Refroidissement éolien Point de rosée Humidité Vent Precip. Alt. Mise à jour Type
                   

Watches & Warnings

There are currently no watches in effect.